Terminal Aerodrome Forecast
Issued by NWS Des Moines, IA

Home | Current Version | Previous Version | Text Only | Print | Product List | Glossary On
Versions: 1 2 3 4 5 6 7 8 9 10 11 12 13 14 15 16 17 18 19 20 21 22 23 24 25 26 27 28 29 30 31 32 33 34 35 36 37 38 39 40 41 42 43 44 45 46 47 48 49 50
000
FTUS43 KDMX 310530
TAFALO
TAF
KALO 310530Z 3106/0106 10006KT P6SM SCT050 BKN100
     FM310800 15006KT P6SM SCT040 BKN100
     FM311600 17010KT P6SM SCT050
     FM312000 20010KT P6SM VCTS SCT028 BKN040CB=

USA.gov is the U.S. government's official web portal to all federal, state and local government web resources and services.